PWSweather.com
Personal Weather Stations
Station Observations
KCTHAMDEN
Dunbar Hill, Hamden, CT 06514

Dunbar HillHamden, CT 06514

Lat: 41.365437, Lon: -72.956532

Elevation: 200

Station Type: Davis Vantage Pro2+

www.hamdenweather.com

High Low Average
Temperature 84.5°F29.2°C 69.0°F20.6°C 74.8°F23.8°C
Dew Point 74.5°F23.6°C 63.8°F17.7°C 69.6°F20.9°C
Winds 3.7 mph 6.0 kmh Calm Calm 1.0 mph SSE1.6 kmh SSE
Wind Gusts 8.0 mph12.9 kmh -- 2.0 mph3.2 kmh
Humidity 98% 60% 85%
Pressure 29.88 in1011.9 mb 29.65 in1004.1 mb -
Precipitation 0.17 in4.3 mm - -
Hour Temp Dew Point Humidity Winds Wind Gusts Pressure Precip Precip Rate Daily Precip Total
12:00 AM 70.1°F21.2°C 67.3°F19.6°C 91% 0.8 mph S1.3 kmh S 2.0 mph3.2 kmh 29.91 in1012.9 mb - 0.00 in0.0 mm 0.00 in0.0 mm
12:15 AM 70.0°F21.1°C 67.3°F19.6°C 91% 0.2 mph ESE0.3 kmh ESE 1.0 mph1.6 kmh 29.91 in1012.9 mb - 0.00 in0.0 mm 0.00 in0.0 mm
12:30 AM 70.1°F21.2°C 67.7°F19.8°C 92% 1.7 mph ENE2.7 kmh ENE 2.0 mph3.2 kmh 29.90 in1012.5 mb - 0.00 in0.0 mm 0.00 in0.0 mm
12:45 AM 70.1°F21.2°C 67.7°F19.8°C 92% 4.1 mph E6.6 kmh E 4.0 mph6.4 kmh 29.89 in1012.2 mb - 0.00 in0.0 mm 0.00 in0.0 mm
01:00 AM 70.0°F21.1°C 67.6°F19.8°C 92% 0.6 mph E1.0 kmh E 3.0 mph4.8 kmh 29.88 in1011.9 mb - 0.00 in0.0 mm 0.00 in0.0 mm
01:15 AM 70.0°F21.1°C 67.6°F19.8°C 92% 0.9 mph ESE1.4 kmh ESE 2.0 mph3.2 kmh 29.87 in1011.5 mb - 0.00 in0.0 mm 0.00 in0.0 mm
01:30 AM 70.0°F21.1°C 67.6°F19.8°C 92% 0.4 mph SE0.6 kmh SE 7.0 mph11.3 kmh 29.86 in1011.2 mb - 0.00 in0.0 mm 0.00 in0.0 mm
01:45 AM 70.0°F21.1°C 67.6°F19.8°C 92% 2.1 mph SE3.4 kmh SE 5.0 mph8.0 kmh 29.85 in1010.8 mb - 0.00 in0.0 mm 0.00 in0.0 mm
02:00 AM 70.0°F21.1°C 67.3°F19.6°C 91% 0.5 mph E0.8 kmh E 1.0 mph1.6 kmh 29.84 in1010.5 mb - 0.00 in0.0 mm 0.00 in0.0 mm
02:15 AM 70.1°F21.2°C 67.3°F19.6°C 91% 0.3 mph SSE0.5 kmh SSE 2.0 mph3.2 kmh 29.83 in1010.2 mb - 0.00 in0.0 mm 0.00 in0.0 mm
02:30 AM 70.1°F21.2°C 67.3°F19.6°C 91% 0.8 mph E1.3 kmh E 2.0 mph3.2 kmh 29.82 in1009.8 mb - 0.00 in0.0 mm 0.00 in0.0 mm
02:45 AM 70.1°F21.2°C 67.3°F19.6°C 91% 1.1 mph E1.8 kmh E -- 29.81 in1009.5 mb - 0.00 in0.0 mm 0.00 in0.0 mm
03:00 AM 69.9°F21.1°C 67.5°F19.7°C 92% 0.7 mph ESE1.1 kmh ESE 2.0 mph3.2 kmh 29.80 in1009.1 mb - 0.00 in0.0 mm 0.00 in0.0 mm
03:15 AM 69.8°F21.0°C 67.4°F19.7°C 92% 0.4 mph ESE0.6 kmh ESE 3.0 mph4.8 kmh 29.79 in1008.8 mb - 0.03 in0.8 mm 0.03 in0.8 mm
03:30 AM 69.6°F20.9°C 67.5°F19.7°C 93% 1.4 mph E2.3 kmh E 4.0 mph6.4 kmh 29.78 in1008.5 mb - 0.03 in0.8 mm 0.06 in1.5 mm
03:45 AM 69.4°F20.8°C 67.3°F19.6°C 93% 0.1 mph SE0.2 kmh SE -- 29.77 in1008.1 mb - 0.01 in0.3 mm 0.07 in1.8 mm
04:00 AM 69.2°F20.7°C 67.4°F19.7°C 94% 3.0 mph E4.8 kmh E 3.0 mph4.8 kmh 29.75 in1007.5 mb - 0.00 in0.0 mm 0.07 in1.8 mm
04:15 AM 69.1°F20.6°C 67.3°F19.6°C 94% 2.3 mph SE3.7 kmh SE 3.0 mph4.8 kmh 29.75 in1007.5 mb - 0.00 in0.0 mm 0.07 in1.8 mm
04:30 AM 69.1°F20.6°C 67.6°F19.8°C 95% 0.3 mph S0.5 kmh S 1.0 mph1.6 kmh 29.75 in1007.5 mb - 0.01 in0.3 mm 0.08 in2.0 mm
04:45 AM 69.2°F20.7°C 67.7°F19.8°C 95% 2.6 mph E4.2 kmh E 3.0 mph4.8 kmh 29.75 in1007.5 mb - 0.00 in0.0 mm 0.08 in2.0 mm
05:00 AM 69.2°F20.7°C 67.7°F19.8°C 95% Calm Calm -- 29.74 in1007.1 mb - 0.04 in1.0 mm 0.12 in3.0 mm
05:15 AM 69.2°F20.7°C 68.0°F20.0°C 96% Calm Calm -- 29.73 in1006.8 mb - 0.04 in1.0 mm 0.16 in4.1 mm
05:30 AM 69.4°F20.8°C 68.2°F20.1°C 96% 0.6 mph ENE1.0 kmh ENE 2.0 mph3.2 kmh 29.72 in1006.4 mb - 0.00 in0.0 mm 0.16 in4.1 mm
05:45 AM 69.5°F20.8°C 68.3°F20.2°C 96% Calm Calm 1.0 mph1.6 kmh 29.72 in1006.4 mb - 0.00 in0.0 mm 0.16 in4.1 mm
06:00 AM 69.7°F20.9°C 68.5°F20.3°C 96% Calm Calm -- 29.72 in1006.4 mb - 0.00 in0.0 mm 0.16 in4.1 mm
06:15 AM 69.8°F21.0°C 68.6°F20.3°C 96% Calm Calm 1.0 mph1.6 kmh 29.72 in1006.4 mb - 0.00 in0.0 mm 0.16 in4.1 mm
06:30 AM 70.5°F21.4°C 69.6°F20.9°C 97% 1.0 mph SW1.6 kmh SW 3.0 mph4.8 kmh 29.72 in1006.4 mb - 0.00 in0.0 mm 0.16 in4.1 mm
06:45 AM 70.8°F21.6°C 69.9°F21.1°C 97% 2.3 mph E3.7 kmh E 7.0 mph11.3 kmh 29.70 in1005.8 mb - 0.00 in0.0 mm 0.16 in4.1 mm
07:00 AM 71.3°F21.8°C 70.4°F21.3°C 97% 0.1 mph SE0.2 kmh SE 2.0 mph3.2 kmh 29.70 in1005.8 mb - 0.01 in0.3 mm 0.17 in4.3 mm
07:15 AM 71.8°F22.1°C 70.9°F21.6°C 97% 0.3 mph E0.5 kmh E 2.0 mph3.2 kmh 29.70 in1005.8 mb - 0.00 in0.0 mm 0.17 in4.3 mm
07:30 AM 72.2°F22.3°C 71.3°F21.8°C 97% Calm Calm -- 29.70 in1005.8 mb - 0.00 in0.0 mm 0.17 in4.3 mm
07:45 AM 72.5°F22.5°C 71.6°F22.0°C 97% 0.2 mph SSE0.3 kmh SSE 1.0 mph1.6 kmh 29.70 in1005.8 mb - 0.00 in0.0 mm 0.17 in4.3 mm
08:00 AM 72.4°F22.4°C 71.5°F21.9°C 97% Calm Calm 1.0 mph1.6 kmh 29.70 in1005.8 mb - 0.00 in0.0 mm 0.17 in4.3 mm
08:15 AM 72.7°F22.6°C 71.8°F22.1°C 97% 0.2 mph SSE0.3 kmh SSE 2.0 mph3.2 kmh 29.70 in1005.8 mb - 0.00 in0.0 mm 0.17 in4.3 mm
08:30 AM 73.0°F22.8°C 72.1°F22.3°C 97% Calm Calm -- 29.70 in1005.8 mb - 0.00 in0.0 mm 0.17 in4.3 mm
08:45 AM 73.4°F23.0°C 72.5°F22.5°C 97% Calm Calm 1.0 mph1.6 kmh 29.69 in1005.4 mb - 0.00 in0.0 mm 0.17 in4.3 mm
09:00 AM 73.9°F23.3°C 73.3°F22.9°C 98% 0.6 mph ESE1.0 kmh ESE 2.0 mph3.2 kmh 29.69 in1005.4 mb - 0.00 in0.0 mm 0.17 in4.3 mm
09:15 AM 74.2°F23.4°C 73.3°F22.9°C 97% 0.1 mph S0.2 kmh S 1.0 mph1.6 kmh 29.69 in1005.4 mb - 0.00 in0.0 mm 0.17 in4.3 mm
09:30 AM 74.1°F23.4°C 73.2°F22.9°C 97% 0.1 mph SSE0.2 kmh SSE 1.0 mph1.6 kmh 29.68 in1005.1 mb - 0.00 in0.0 mm 0.17 in4.3 mm
09:45 AM 74.2°F23.4°C 73.3°F22.9°C 97% 0.3 mph SSW0.5 kmh SSW 8.0 mph12.9 kmh 29.68 in1005.1 mb - 0.00 in0.0 mm 0.17 in4.3 mm
10:00 AM 74.4°F23.6°C 73.5°F23.1°C 97% Calm Calm -- 29.68 in1005.1 mb - 0.00 in0.0 mm 0.17 in4.3 mm
10:15 AM 75.6°F24.2°C 74.4°F23.6°C 96% 1.9 mph SW3.1 kmh SW 4.0 mph6.4 kmh 29.67 in1004.7 mb - 0.00 in0.0 mm 0.17 in4.3 mm
10:30 AM 76.4°F24.7°C 73.9°F23.3°C 92% Calm Calm 1.0 mph1.6 kmh 29.68 in1005.1 mb - 0.00 in0.0 mm 0.17 in4.3 mm
10:45 AM 77.4°F25.2°C 73.6°F23.1°C 88% 1.1 mph SE1.8 kmh SE 4.0 mph6.4 kmh 29.68 in1005.1 mb - 0.00 in0.0 mm 0.17 in4.3 mm
11:00 AM 77.8°F25.4°C 74.0°F23.3°C 88% 0.2 mph S0.3 kmh S 3.0 mph4.8 kmh 29.68 in1005.1 mb - 0.00 in0.0 mm 0.17 in4.3 mm
11:15 AM 79.1°F26.2°C 72.8°F22.7°C 81% 2.2 mph SSE3.5 kmh SSE 3.0 mph4.8 kmh 29.68 in1005.1 mb - 0.00 in0.0 mm 0.17 in4.3 mm
11:30 AM 79.9°F26.6°C 73.2°F22.9°C 80% 0.9 mph E1.4 kmh E 1.0 mph1.6 kmh 29.67 in1004.7 mb - 0.00 in0.0 mm 0.17 in4.3 mm
11:45 AM 81.2°F27.3°C 74.5°F23.6°C 80% 0.8 mph NE1.3 kmh NE 2.0 mph3.2 kmh 29.67 in1004.7 mb - 0.00 in0.0 mm 0.17 in4.3 mm
12:00 PM 81.2°F27.3°C 72.9°F22.7°C 76% 1.3 mph S2.1 kmh S 2.0 mph3.2 kmh 29.67 in1004.7 mb - 0.00 in0.0 mm 0.17 in4.3 mm
12:15 PM 81.1°F27.3°C 72.8°F22.7°C 76% 1.2 mph SW1.9 kmh SW 3.0 mph4.8 kmh 29.67 in1004.7 mb - 0.00 in0.0 mm 0.17 in4.3 mm
12:30 PM 80.9°F27.2°C 73.4°F23.0°C 78% 3.7 mph NE6.0 kmh NE 6.0 mph9.7 kmh 29.66 in1004.4 mb - 0.00 in0.0 mm 0.17 in4.3 mm
12:45 PM 82.0°F27.8°C 73.7°F23.2°C 76% 1.2 mph E1.9 kmh E 3.0 mph4.8 kmh 29.66 in1004.4 mb - 0.00 in0.0 mm 0.17 in4.3 mm
01:00 PM 82.5°F28.1°C 73.3°F22.9°C 74% 1.3 mph ESE2.1 kmh ESE 1.0 mph1.6 kmh 29.66 in1004.4 mb - 0.00 in0.0 mm 0.17 in4.3 mm
01:15 PM 83.3°F28.5°C 74.5°F23.6°C 75% 1.0 mph WSW1.6 kmh WSW 2.0 mph3.2 kmh 29.65 in1004.1 mb - 0.00 in0.0 mm 0.17 in4.3 mm
01:30 PM 83.0°F28.3°C 72.6°F22.6°C 71% 1.0 mph SW1.6 kmh SW 2.0 mph3.2 kmh 29.66 in1004.4 mb - 0.00 in0.0 mm 0.17 in4.3 mm
01:45 PM 82.8°F28.2°C 74.1°F23.4°C 75% 0.9 mph E1.4 kmh E 2.0 mph3.2 kmh 29.66 in1004.4 mb - 0.00 in0.0 mm 0.17 in4.3 mm
02:00 PM 83.8°F28.8°C 73.3°F22.9°C 71% 1.3 mph SE2.1 kmh SE 2.0 mph3.2 kmh 29.65 in1004.1 mb - 0.00 in0.0 mm 0.17 in4.3 mm
02:15 PM 84.5°F29.2°C 73.6°F23.1°C 70% 1.8 mph WSW2.9 kmh WSW 3.0 mph4.8 kmh 29.65 in1004.1 mb - 0.00 in0.0 mm 0.17 in4.3 mm
02:30 PM 83.9°F28.8°C 74.3°F23.5°C 73% 1.9 mph N3.1 kmh N 4.0 mph6.4 kmh 29.65 in1004.1 mb - 0.00 in0.0 mm 0.17 in4.3 mm
02:45 PM 83.6°F28.7°C 72.7°F22.6°C 70% 1.6 mph WSW2.6 kmh WSW 2.0 mph3.2 kmh 29.65 in1004.1 mb - 0.00 in0.0 mm 0.17 in4.3 mm
03:00 PM 82.1°F27.8°C 71.7°F22.1°C 71% 1.7 mph SE2.7 kmh SE 3.0 mph4.8 kmh 29.65 in1004.1 mb - 0.00 in0.0 mm 0.17 in4.3 mm
03:15 PM 82.2°F27.9°C 73.1°F22.8°C 74% 1.8 mph SW2.9 kmh SW 3.0 mph4.8 kmh 29.66 in1004.4 mb - 0.00 in0.0 mm 0.17 in4.3 mm
03:30 PM 82.6°F28.1°C 72.6°F22.6°C 72% 2.4 mph WSW3.9 kmh WSW 3.0 mph4.8 kmh 29.66 in1004.4 mb - 0.00 in0.0 mm 0.17 in4.3 mm
03:45 PM 82.7°F28.2°C 73.2°F22.9°C 73% 1.4 mph S2.3 kmh S 2.0 mph3.2 kmh 29.66 in1004.4 mb - 0.00 in0.0 mm 0.17 in4.3 mm
04:00 PM 83.1°F28.4°C 71.9°F22.2°C 69% 2.5 mph SSW4.0 kmh SSW 3.0 mph4.8 kmh 29.66 in1004.4 mb - 0.00 in0.0 mm 0.17 in4.3 mm
04:15 PM 83.1°F28.4°C 71.9°F22.2°C 69% 1.8 mph NE2.9 kmh NE 3.0 mph4.8 kmh 29.66 in1004.4 mb - 0.00 in0.0 mm 0.17 in4.3 mm
04:30 PM 83.0°F28.3°C 67.7°F19.8°C 60% 3.5 mph WSW5.6 kmh WSW 3.0 mph4.8 kmh 29.66 in1004.4 mb - 0.00 in0.0 mm 0.17 in4.3 mm
04:45 PM 82.7°F28.2°C 68.8°F20.4°C 63% 1.2 mph S1.9 kmh S 1.0 mph1.6 kmh 29.66 in1004.4 mb - 0.00 in0.0 mm 0.17 in4.3 mm
05:00 PM 83.2°F28.4°C 70.2°F21.2°C 65% 0.4 mph NE0.6 kmh NE 1.0 mph1.6 kmh 29.66 in1004.4 mb - 0.00 in0.0 mm 0.17 in4.3 mm
05:15 PM 83.8°F28.8°C 69.9°F21.1°C 63% 0.5 mph SSE0.8 kmh SSE 1.0 mph1.6 kmh 29.67 in1004.7 mb - 0.00 in0.0 mm 0.17 in4.3 mm
05:30 PM 83.4°F28.6°C 69.9°F21.1°C 64% 1.0 mph S1.6 kmh S 2.0 mph3.2 kmh 29.67 in1004.7 mb - 0.00 in0.0 mm 0.17 in4.3 mm
05:45 PM 82.5°F28.1°C 70.0°F21.1°C 66% 0.9 mph S1.4 kmh S 2.0 mph3.2 kmh 29.67 in1004.7 mb - 0.00 in0.0 mm 0.17 in4.3 mm
06:00 PM 80.7°F27.1°C 69.6°F20.9°C 69% 0.9 mph WSW1.4 kmh WSW 2.0 mph3.2 kmh 29.68 in1005.1 mb - 0.00 in0.0 mm 0.17 in4.3 mm
06:15 PM 79.3°F26.3°C 69.1°F20.6°C 71% 1.8 mph S2.9 kmh S 1.0 mph1.6 kmh 29.69 in1005.4 mb - 0.00 in0.0 mm 0.17 in4.3 mm
06:30 PM 78.0°F25.6°C 69.1°F20.6°C 74% 0.5 mph S0.8 kmh S 2.0 mph3.2 kmh 29.69 in1005.4 mb - 0.00 in0.0 mm 0.17 in4.3 mm
06:45 PM 76.8°F24.9°C 68.3°F20.2°C 75% 0.3 mph S0.5 kmh S 1.0 mph1.6 kmh 29.69 in1005.4 mb - 0.00 in0.0 mm 0.17 in4.3 mm
07:00 PM 76.0°F24.4°C 68.6°F20.3°C 78% 0.2 mph S0.3 kmh S -- 29.70 in1005.8 mb - 0.00 in0.0 mm 0.17 in4.3 mm
07:15 PM 75.1°F23.9°C 68.5°F20.3°C 80% 0.6 mph S1.0 kmh S 1.0 mph1.6 kmh 29.70 in1005.8 mb - 0.00 in0.0 mm 0.17 in4.3 mm
07:30 PM 74.2°F23.4°C 68.0°F20.0°C 81% 0.6 mph S1.0 kmh S 1.0 mph1.6 kmh 29.71 in1006.1 mb - 0.00 in0.0 mm 0.17 in4.3 mm
07:45 PM 73.3°F22.9°C 67.9°F19.9°C 83% 0.5 mph S0.8 kmh S 1.0 mph1.6 kmh 29.71 in1006.1 mb - 0.00 in0.0 mm 0.17 in4.3 mm
08:00 PM 72.8°F22.7°C 68.0°F20.0°C 85% 1.4 mph S2.3 kmh S 2.0 mph3.2 kmh 29.72 in1006.4 mb - 0.00 in0.0 mm 0.17 in4.3 mm
08:15 PM 72.4°F22.4°C 68.6°F20.3°C 88% 0.4 mph S0.6 kmh S 1.0 mph1.6 kmh 29.73 in1006.8 mb - 0.00 in0.0 mm 0.17 in4.3 mm
08:30 PM 71.9°F22.2°C 68.2°F20.1°C 88% 0.9 mph S1.4 kmh S 1.0 mph1.6 kmh 29.74 in1007.1 mb - 0.00 in0.0 mm 0.17 in4.3 mm
08:45 PM 71.4°F21.9°C 67.0°F19.4°C 86% 0.2 mph S0.3 kmh S 1.0 mph1.6 kmh 29.75 in1007.5 mb - 0.00 in0.0 mm 0.17 in4.3 mm
09:00 PM 71.4°F21.9°C 67.0°F19.4°C 86% 0.9 mph WSW1.4 kmh WSW 3.0 mph4.8 kmh 29.75 in1007.5 mb - 0.00 in0.0 mm 0.17 in4.3 mm
09:15 PM 71.1°F21.7°C 66.0°F18.9°C 84% 0.4 mph NNE0.6 kmh NNE 1.0 mph1.6 kmh 29.75 in1007.5 mb - 0.00 in0.0 mm 0.17 in4.3 mm
09:30 PM 70.6°F21.4°C 65.2°F18.4°C 83% 0.4 mph NNE0.6 kmh NNE 2.0 mph3.2 kmh 29.76 in1007.8 mb - 0.00 in0.0 mm 0.17 in4.3 mm
09:45 PM 70.3°F21.3°C 64.5°F18.1°C 82% Calm Calm -- 29.76 in1007.8 mb - 0.00 in0.0 mm 0.17 in4.3 mm
10:00 PM 70.2°F21.2°C 64.8°F18.2°C 83% Calm Calm -- 29.77 in1008.1 mb - 0.00 in0.0 mm 0.17 in4.3 mm
10:15 PM 70.1°F21.2°C 65.4°F18.6°C 85% 1.1 mph SW1.8 kmh SW 2.0 mph3.2 kmh 29.77 in1008.1 mb - 0.00 in0.0 mm 0.17 in4.3 mm
10:30 PM 69.7°F20.9°C 65.0°F18.3°C 85% Calm Calm -- 29.78 in1008.5 mb - 0.00 in0.0 mm 0.17 in4.3 mm
10:45 PM 69.7°F20.9°C 66.0°F18.9°C 88% 0.6 mph SW1.0 kmh SW 1.0 mph1.6 kmh 29.77 in1008.1 mb - 0.00 in0.0 mm 0.17 in4.3 mm
11:00 PM 69.4°F20.8°C 65.7°F18.7°C 88% Calm Calm -- 29.77 in1008.1 mb - 0.00 in0.0 mm 0.17 in4.3 mm
11:15 PM 69.2°F20.7°C 65.5°F18.6°C 88% 0.2 mph SW0.3 kmh SW 1.0 mph1.6 kmh 29.77 in1008.1 mb - 0.00 in0.0 mm 0.17 in4.3 mm
11:30 PM 69.1°F20.6°C 65.7°F18.7°C 89% 0.4 mph SW0.6 kmh SW 1.0 mph1.6 kmh 29.77 in1008.1 mb - 0.00 in0.0 mm 0.17 in4.3 mm
11:45 PM 69.0°F20.6°C 65.3°F18.5°C 88% 2.2 mph S3.5 kmh S 4.0 mph6.4 kmh 29.77 in1008.1 mb - 0.00 in0.0 mm 0.17 in4.3 mm